createdAt,value
2023-05-11T00:02:16.627Z,51.11
2023-05-11T00:05:24.913Z,51.66
2023-05-11T00:08:31.782Z,52.50
2023-05-11T00:11:37.705Z,52.26
2023-05-11T00:14:48.274Z,52.85
2023-05-11T00:17:54.428Z,53.16
2023-05-11T00:21:01.550Z,53.23
2023-05-11T00:24:07.816Z,53.48
2023-05-11T00:27:14.605Z,53.33
2023-05-11T00:30:23.932Z,53.15
2023-05-11T00:33:30.990Z,53.12
2023-05-11T00:36:41.277Z,53.56
2023-05-11T00:39:48.589Z,53.20
2023-05-11T00:42:54.658Z,53.29
2023-05-11T00:46:05.920Z,53.53
2023-05-11T00:49:12.698Z,53.40
2023-05-11T00:52:21.623Z,53.38
2023-05-11T00:55:31.818Z,53.54
2023-05-11T00:58:39.285Z,53.36
2023-05-11T01:01:48.065Z,54.05
2023-05-11T01:04:55.120Z,53.80
2023-05-11T01:08:12.299Z,53.65
2023-05-11T01:11:31.359Z,53.52
2023-05-11T01:14:45.179Z,53.56
2023-05-11T01:18:08.064Z,53.94
2023-05-11T01:21:19.722Z,54.23
2023-05-11T01:24:53.822Z,54.26
2023-05-11T01:28:29.072Z,53.73
2023-05-11T01:31:45.581Z,53.91
2023-05-11T01:35:06.549Z,54.83
2023-05-11T01:38:17.848Z,54.71
2023-05-11T01:41:29.740Z,55.77
2023-05-11T01:44:40.559Z,55.56
2023-05-11T01:47:55.812Z,56.05
2023-05-11T01:51:08.997Z,56.39
2023-05-11T01:54:17.711Z,56.81
2023-05-11T01:57:27.105Z,56.77
2023-05-11T02:00:34.909Z,56.73
2023-05-11T02:03:50.077Z,57.10
2023-05-11T02:07:03.186Z,56.52
2023-05-11T02:10:12.848Z,56.08
2023-05-11T02:13:24.383Z,55.59
2023-05-11T02:16:36.004Z,55.72
2023-05-11T02:19:50.376Z,56.68
2023-05-11T02:23:00.012Z,56.98
2023-05-11T02:26:11.788Z,57.35
2023-05-11T02:29:18.381Z,57.17
2023-05-11T02:32:30.317Z,57.73
2023-05-11T02:35:47.019Z,57.84
2023-05-11T02:39:05.923Z,58.24
2023-05-11T02:42:21.695Z,58.51
2023-05-11T02:45:40.225Z,59.09
2023-05-11T02:48:56.313Z,59.01
2023-05-11T02:52:13.049Z,59.93
2023-05-11T02:55:27.437Z,60.44
2023-05-11T02:58:35.010Z,60.06
2023-05-11T03:01:58.657Z,59.99
2023-05-11T03:05:11.569Z,60.33
2023-05-11T03:08:20.378Z,59.60
2023-05-11T03:11:31.097Z,60.29
2023-05-11T03:14:40.078Z,60.52
2023-05-11T03:17:49.933Z,60.40
2023-05-11T03:20:56.487Z,60.16
2023-05-11T03:24:09.696Z,60.72
2023-05-11T03:27:17.263Z,61.34
2023-05-11T03:30:28.603Z,60.79
2023-05-11T03:33:36.611Z,60.63
2023-05-11T03:36:52.338Z,59.52
2023-05-11T03:40:06.977Z,58.55
2023-05-11T03:43:26.054Z,58.28
2023-05-11T03:46:37.930Z,57.07
2023-05-11T03:49:48.411Z,57.09
2023-05-11T03:52:56.270Z,56.47
2023-05-11T03:56:07.672Z,56.49
2023-05-11T03:59:19.338Z,56.25
2023-05-11T04:02:29.581Z,56.73
2023-05-11T04:05:36.396Z,56.71
2023-05-11T04:08:46.645Z,56.70
2023-05-11T04:11:55.575Z,57.39
2023-05-11T04:15:02.569Z,57.83
2023-05-11T04:18:08.727Z,57.68
2023-05-11T04:21:15.772Z,55.81
2023-05-11T04:24:21.723Z,57.05
2023-05-11T04:27:31.678Z,57.91
2023-05-11T04:30:37.762Z,57.83
2023-05-11T04:33:47.735Z,56.75
2023-05-11T04:36:56.988Z,54.57
2023-05-11T04:40:04.716Z,52.20
2023-05-11T04:43:19.812Z,49.80
2023-05-11T04:46:27.279Z,48.29
2023-05-11T04:49:33.598Z,47.06
2023-05-11T04:52:41.113Z,45.79
2023-05-11T04:55:47.379Z,44.79
2023-05-11T04:58:57.301Z,44.07
2023-05-11T05:02:07.025Z,43.94
2023-05-11T05:05:13.956Z,43.53
2023-05-11T05:08:24.246Z,43.52
2023-05-11T05:11:31.110Z,41.75
2023-05-11T05:14:46.026Z,40.14
2023-05-11T05:17:53.234Z,38.25
2023-05-11T05:21:00.398Z,36.96
2023-05-11T05:24:11.479Z,37.35
2023-05-11T05:27:18.109Z,38.85
2023-05-11T05:30:27.808Z,39.42
2023-05-11T05:33:34.166Z,39.70
2023-05-11T05:36:41.067Z,38.85
2023-05-11T05:39:48.411Z,37.63
2023-05-11T05:42:56.064Z,35.58
2023-05-11T05:46:06.432Z,34.36
2023-05-11T05:49:13.687Z,34.67
2023-05-11T05:52:20.160Z,35.91
2023-05-11T05:55:28.967Z,36.63
2023-05-11T05:58:43.796Z,36.96
2023-05-11T06:01:56.378Z,37.82
2023-05-11T06:05:10.589Z,38.00
2023-05-11T06:08:18.204Z,37.31
2023-05-11T06:11:24.879Z,37.32
2023-05-11T06:14:32.201Z,37.31
2023-05-11T06:17:42.270Z,35.36
2023-05-11T06:20:51.183Z,34.80
2023-05-11T06:23:57.848Z,35.36
2023-05-11T06:27:09.453Z,35.58
2023-05-11T06:30:16.892Z,35.88
2023-05-11T06:33:35.882Z,36.25
2023-05-11T06:36:44.656Z,35.99
2023-05-11T06:39:51.754Z,35.63
2023-05-11T06:42:58.002Z,35.39
2023-05-11T06:46:21.320Z,34.62
2023-05-11T06:49:29.899Z,34.16
2023-05-11T06:52:36.843Z,34.50
2023-05-11T06:55:43.099Z,34.41
2023-05-11T06:58:49.924Z,33.86
2023-05-11T07:01:56.339Z,33.99
2023-05-11T07:05:06.020Z,30.94
2023-05-11T07:08:12.049Z,30.11
2023-05-11T07:11:19.322Z,31.41
2023-05-11T07:14:25.382Z,33.26
2023-05-11T07:17:32.235Z,34.61
2023-05-11T07:20:41.287Z,36.05
2023-05-11T07:23:48.166Z,35.05
2023-05-11T07:26:54.240Z,34.72
2023-05-11T07:30:01.098Z,35.01
2023-05-11T07:33:27.290Z,35.18
2023-05-11T07:36:38.305Z,32.47
2023-05-11T07:39:44.279Z,33.89
2023-05-11T07:42:51.332Z,33.85
2023-05-11T07:45:57.832Z,32.08
2023-05-11T07:49:15.779Z,31.18
2023-05-11T07:52:27.467Z,32.35
2023-05-11T07:55:34.270Z,31.41
2023-05-11T07:58:40.376Z,28.45
2023-05-11T08:01:47.357Z,29.02
2023-05-11T08:04:53.393Z,29.52
2023-05-11T08:08:02.776Z,29.01
2023-05-11T08:11:09.468Z,28.81
2023-05-11T08:14:23.990Z,28.01
2023-05-11T08:17:30.490Z,27.58
2023-05-11T08:20:37.426Z,27.69
2023-05-11T08:23:46.051Z,25.95
2023-05-11T08:26:52.888Z,26.28
2023-05-11T08:30:03.246Z,25.73
2023-05-11T08:33:29.049Z,28.24
2023-05-11T08:36:36.924Z,27.99
2023-05-11T08:39:48.069Z,26.58
2023-05-11T08:43:08.795Z,25.21
2023-05-11T08:46:28.018Z,25.72
2023-05-11T08:49:36.540Z,26.96
2023-05-11T08:52:44.465Z,26.72
2023-05-11T08:55:54.907Z,27.03
2023-05-11T08:59:03.117Z,25.76
2023-05-11T09:02:14.948Z,25.40
2023-05-11T09:05:23.450Z,27.58
2023-05-11T09:08:35.459Z,26.97
2023-05-11T09:11:45.480Z,28.85
2023-05-11T09:15:01.929Z,28.81
2023-05-11T09:18:11.267Z,28.46
2023-05-11T09:21:17.918Z,27.62
2023-05-11T09:24:25.523Z,26.67
2023-05-11T09:27:41.626Z,27.34
2023-05-11T09:30:49.086Z,27.90
2023-05-11T09:34:19.484Z,26.56
2023-05-11T09:37:26.318Z,24.48
2023-05-11T09:40:35.032Z,25.32
2023-05-11T09:43:44.779Z,23.40
2023-05-11T09:46:50.850Z,23.95
2023-05-11T09:49:57.744Z,23.93
2023-05-11T09:53:05.069Z,27.67
2023-05-11T09:56:12.901Z,28.28
2023-05-11T09:59:42.024Z,29.06
2023-05-11T10:02:49.323Z,28.31
2023-05-11T10:06:04.627Z,27.19
2023-05-11T10:09:15.746Z,24.87
2023-05-11T10:12:28.092Z,25.50
2023-05-11T10:15:39.347Z,24.04
2023-05-11T10:18:46.528Z,23.80
2023-05-11T10:21:55.149Z,23.43
2023-05-11T10:25:02.995Z,24.52
2023-05-11T10:28:10.091Z,25.16
2023-05-11T10:31:24.333Z,22.80
2023-05-11T10:34:32.140Z,22.46
2023-05-11T10:37:39.288Z,21.85
2023-05-11T10:40:51.950Z,21.94
2023-05-11T10:44:28.647Z,21.20
2023-05-11T10:48:17.774Z,23.16
2023-05-11T10:51:49.737Z,23.47
2023-05-11T10:55:17.235Z,22.42
2023-05-11T10:59:00.012Z,21.34
2023-05-11T11:02:26.690Z,20.74
2023-05-11T11:05:46.627Z,20.93
2023-05-11T11:09:02.077Z,21.35
2023-05-11T11:12:16.930Z,21.98
2023-05-11T11:15:24.335Z,21.60
2023-05-11T11:18:33.705Z,22.45
2023-05-11T11:21:46.597Z,21.89
2023-05-11T11:24:52.693Z,20.26
2023-05-11T11:28:05.143Z,20.35
2023-05-11T11:31:33.783Z,20.00
2023-05-11T11:34:40.618Z,18.92
2023-05-11T11:38:07.176Z,20.06
2023-05-11T11:41:14.088Z,19.23
2023-05-11T11:44:26.565Z,19.33
2023-05-11T11:47:33.504Z,19.75
2023-05-11T11:50:40.353Z,18.78
2023-05-11T11:54:11.232Z,17.17
2023-05-11T11:57:51.612Z,16.71
2023-05-11T12:00:59.816Z,15.93
2023-05-11T12:04:43.689Z,17.35
2023-05-11T12:07:54.825Z,18.47
2023-05-11T12:11:04.993Z,19.75
2023-05-11T12:14:16.590Z,18.86
2023-05-11T12:17:34.979Z,18.52
2023-05-11T12:20:41.785Z,17.15
2023-05-11T12:23:56.520Z,17.97
2023-05-11T12:27:12.622Z,18.28
2023-05-11T12:30:30.296Z,19.20
2023-05-11T12:33:37.203Z,21.80
2023-05-11T12:36:43.602Z,21.66
2023-05-11T12:39:56.628Z,21.81
2023-05-11T12:43:05.204Z,22.02
2023-05-11T12:46:12.563Z,22.64
2023-05-11T12:52:31.041Z,22.66
2023-05-11T12:55:45.217Z,23.38
2023-05-11T12:58:54.788Z,24.66
2023-05-11T13:02:20.562Z,24.61
2023-05-11T13:05:30.171Z,23.98
2023-05-11T13:08:36.631Z,25.30
2023-05-11T13:11:49.491Z,26.58
2023-05-11T13:15:15.054Z,26.62
2023-05-11T13:18:22.081Z,26.27
2023-05-11T13:21:29.658Z,26.37
2023-05-11T13:24:36.646Z,25.80
2023-05-11T13:27:42.811Z,26.24
2023-05-11T13:31:05.172Z,25.99
2023-05-11T13:34:12.133Z,25.41
2023-05-11T13:37:19.015Z,26.65
2023-05-11T13:40:25.194Z,26.62
2023-05-11T13:43:32.172Z,26.91
2023-05-11T13:46:41.079Z,26.77
2023-05-11T13:49:47.983Z,27.38
2023-05-11T13:52:54.872Z,26.35
2023-05-11T13:59:31.236Z,26.64
2023-05-11T14:02:40.953Z,26.26
2023-05-11T14:05:47.212Z,26.54
2023-05-11T14:08:56.747Z,26.63
2023-05-11T14:12:05.071Z,26.39
2023-05-11T14:15:13.939Z,26.50
2023-05-11T14:18:25.285Z,26.20
2023-05-11T14:21:34.881Z,26.55
2023-05-11T14:24:40.967Z,25.98
2023-05-11T14:27:49.691Z,26.32
2023-05-11T14:30:56.413Z,26.16
2023-05-11T14:34:06.539Z,26.54
2023-05-11T14:37:13.441Z,27.26
2023-05-11T14:40:20.710Z,27.02
2023-05-11T14:43:27.304Z,27.27
2023-05-11T14:46:34.729Z,26.57
2023-05-11T14:49:43.439Z,26.58
2023-05-11T14:52:50.260Z,26.97
2023-05-11T14:55:56.300Z,27.44
2023-05-11T14:59:06.196Z,27.58
2023-05-11T15:02:12.065Z,26.93
2023-05-11T15:05:21.672Z,27.75
2023-05-11T15:08:30.551Z,28.10
2023-05-11T15:11:37.792Z,27.32
2023-05-11T15:14:43.912Z,27.21
2023-05-11T15:17:50.876Z,27.74
2023-05-11T15:20:59.778Z,27.89
2023-05-11T15:24:11.040Z,27.98
2023-05-11T15:27:18.191Z,27.65
2023-05-11T15:30:25.156Z,27.27
2023-05-11T15:33:40.049Z,28.08
2023-05-11T15:36:55.543Z,27.72
2023-05-11T15:40:01.732Z,28.13
2023-05-11T15:43:08.466Z,27.35
2023-05-11T15:46:16.892Z,27.53
2023-05-11T15:49:32.835Z,27.84
2023-05-11T15:52:43.344Z,27.49
2023-05-11T15:55:51.303Z,28.18
2023-05-11T15:58:57.424Z,28.50
2023-05-11T16:02:05.112Z,27.99
2023-05-11T16:05:13.273Z,28.08
2023-05-11T16:08:22.886Z,28.56
2023-05-11T16:11:29.188Z,28.56
2023-05-11T16:14:37.827Z,29.04
2023-05-11T16:17:43.920Z,28.45
2023-05-11T16:20:53.575Z,29.10
2023-05-11T16:24:09.230Z,28.18
2023-05-11T16:27:20.329Z,29.49
2023-05-11T16:30:26.488Z,28.89
2023-05-11T16:33:33.446Z,29.43
2023-05-11T16:36:39.700Z,29.19
2023-05-11T16:39:49.149Z,29.33
2023-05-11T16:42:55.133Z,29.56
2023-05-11T16:46:02.719Z,29.22
2023-05-11T16:49:08.693Z,29.04
2023-05-11T16:52:15.480Z,29.58
2023-05-11T16:55:25.102Z,30.11
2023-05-11T16:58:31.882Z,29.93
2023-05-11T17:01:38.204Z,30.09
2023-05-11T17:04:44.974Z,30.33
2023-05-11T17:07:51.118Z,30.38
2023-05-11T17:11:00.676Z,30.20
2023-05-11T17:14:08.933Z,30.12
2023-05-11T17:17:15.715Z,30.76
2023-05-11T17:20:22.157Z,30.85
2023-05-11T17:23:29.070Z,31.16
2023-05-11T17:26:46.961Z,30.54
2023-05-11T17:29:55.033Z,30.42
2023-05-11T17:33:01.459Z,30.95
2023-05-11T17:36:28.254Z,30.64
2023-05-11T17:39:40.480Z,30.93
2023-05-11T17:42:50.367Z,31.26
2023-05-11T17:45:56.440Z,31.65
2023-05-11T17:49:06.839Z,32.01
2023-05-11T17:52:13.089Z,32.01
2023-05-11T17:55:21.573Z,32.79
2023-05-11T17:58:32.891Z,32.92
2023-05-11T18:01:39.907Z,32.80
2023-05-11T18:04:46.020Z,32.92
2023-05-11T18:07:52.881Z,33.46
2023-05-11T18:10:59.034Z,33.29
2023-05-11T18:14:08.897Z,33.98
2023-05-11T18:17:15.288Z,33.91
2023-05-11T18:20:23.303Z,34.27
2023-05-11T18:23:30.341Z,34.46
2023-05-11T18:26:45.139Z,34.50
2023-05-11T18:29:56.683Z,34.72
2023-05-11T18:33:03.792Z,34.91
2023-05-11T18:36:19.995Z,34.90
2023-05-11T18:39:26.865Z,35.42
2023-05-11T18:42:32.838Z,35.44
2023-05-11T18:45:43.422Z,35.83
2023-05-11T18:48:50.356Z,36.41
2023-05-11T18:51:57.459Z,36.39
2023-05-11T18:55:12.705Z,36.42
2023-05-11T18:58:20.871Z,36.51
2023-05-11T19:01:47.103Z,36.86
2023-05-11T19:04:54.701Z,37.46
2023-05-11T19:08:00.778Z,37.14
2023-05-11T19:11:10.834Z,37.52
2023-05-11T19:14:16.983Z,37.92
2023-05-11T19:17:26.695Z,37.90
2023-05-11T19:20:32.708Z,38.41
2023-05-11T19:23:39.484Z,38.47
2023-05-11T19:26:52.369Z,39.15
2023-05-11T19:30:12.551Z,38.91
2023-05-11T19:33:21.231Z,39.62
2023-05-11T19:36:43.546Z,39.69
2023-05-11T19:39:49.703Z,40.19
2023-05-11T19:42:56.664Z,40.31
2023-05-11T19:46:05.356Z,40.70
2023-05-11T19:49:16.663Z,40.91
2023-05-11T19:52:22.678Z,41.07
2023-05-11T19:55:29.878Z,41.07
2023-05-11T19:58:42.134Z,41.48
2023-05-11T20:01:51.640Z,41.34
2023-05-11T20:05:00.253Z,41.51
2023-05-11T20:08:08.455Z,41.78
2023-05-11T20:11:18.141Z,41.83
2023-05-11T20:14:26.542Z,42.22
2023-05-11T20:17:32.532Z,42.38
2023-05-11T20:20:42.034Z,42.72
2023-05-11T20:23:47.992Z,42.93
2023-05-11T20:26:55.255Z,42.73
2023-05-11T20:30:09.460Z,43.25
2023-05-11T20:36:29.670Z,42.91
2023-05-11T20:39:36.666Z,43.22
2023-05-11T20:42:49.337Z,43.43
2023-05-11T20:46:06.337Z,43.27
2023-05-11T20:49:30.902Z,43.67
2023-05-11T20:52:54.587Z,43.97
2023-05-11T20:56:02.624Z,43.89
2023-05-11T21:02:36.303Z,44.36
2023-05-11T21:05:43.187Z,44.48
2023-05-11T21:08:52.659Z,44.75
2023-05-11T21:11:59.647Z,44.65
2023-05-11T21:15:05.707Z,44.48
2023-05-11T21:18:12.753Z,44.40
2023-05-11T21:21:24.499Z,44.98
2023-05-11T21:24:34.477Z,45.08
2023-05-11T21:27:41.833Z,45.46
2023-05-11T21:30:48.687Z,45.27
2023-05-11T21:33:54.914Z,45.59
2023-05-11T21:37:02.330Z,45.24
2023-05-11T21:40:15.669Z,45.39
2023-05-11T21:43:22.905Z,45.94
2023-05-11T21:46:28.880Z,45.60
2023-05-11T21:49:37.036Z,45.97
2023-05-11T21:52:43.507Z,45.78
2023-05-11T21:55:54.115Z,45.64
2023-05-11T21:59:00.188Z,46.26
2023-05-11T22:02:16.309Z,46.55
2023-05-11T22:05:22.520Z,46.08
2023-05-11T22:08:29.523Z,46.71
2023-05-11T22:11:41.832Z,46.97
2023-05-11T22:14:48.583Z,46.86
2023-05-11T22:17:54.607Z,47.08
2023-05-11T22:21:01.477Z,46.94
2023-05-11T22:24:13.884Z,47.35
2023-05-11T22:27:23.544Z,47.36
2023-05-11T22:30:29.593Z,47.18
2023-05-11T22:33:36.397Z,47.15
2023-05-11T22:36:42.353Z,47.40
2023-05-11T22:39:49.117Z,47.25
2023-05-11T22:42:57.607Z,47.12
2023-05-11T22:46:17.490Z,47.59
2023-05-11T22:49:30.158Z,47.29
2023-05-11T22:52:37.017Z,47.51
2023-05-11T22:55:44.631Z,47.58
2023-05-11T22:58:56.277Z,47.60
2023-05-11T23:02:03.499Z,48.01
2023-05-11T23:05:11.859Z,47.96
2023-05-11T23:08:22.357Z,47.60
2023-05-11T23:11:29.482Z,47.90
2023-05-11T23:14:38.095Z,48.14
2023-05-11T23:17:44.927Z,48.51
2023-05-11T23:20:51.045Z,48.74
2023-05-11T23:23:57.928Z,48.77
2023-05-11T23:27:20.158Z,49.40
2023-05-11T23:30:29.742Z,49.03
2023-05-11T23:33:36.289Z,49.27
2023-05-11T23:36:43.314Z,49.88
2023-05-11T23:39:49.279Z,50.20
2023-05-11T23:42:56.098Z,49.81
2023-05-11T23:46:07.925Z,50.57
2023-05-11T23:49:14.851Z,50.20
2023-05-11T23:52:20.850Z,50.58
2023-05-11T23:55:27.702Z,51.00
2023-05-11T23:58:33.699Z,51.27
